createdAt,value
2022-11-08T00:01:34.111Z,65.05
2022-11-08T00:06:49.797Z,65.83
2022-11-08T00:12:04.413Z,65.44
2022-11-08T00:17:06.362Z,66.35
2022-11-08T00:22:03.621Z,67.61
2022-11-08T00:27:00.270Z,68.90
2022-11-08T00:31:57.027Z,69.53
2022-11-08T00:36:53.631Z,71.17
2022-11-08T00:41:50.964Z,71.65
2022-11-08T00:46:48.889Z,71.82
2022-11-08T00:51:45.682Z,72.38
2022-11-08T00:56:42.880Z,72.64
2022-11-08T01:01:41.622Z,73.85
2022-11-08T01:06:41.581Z,71.94
2022-11-08T01:11:41.099Z,72.25
2022-11-08T01:16:44.676Z,71.47
2022-11-08T01:21:47.346Z,70.71
2022-11-08T01:26:44.165Z,68.42
2022-11-08T01:31:43.766Z,67.98
2022-11-08T01:36:40.488Z,68.45
2022-11-08T01:41:38.561Z,67.74
2022-11-08T01:46:44.334Z,67.78
2022-11-08T01:51:44.525Z,68.18
2022-11-08T01:56:41.881Z,69.25
2022-11-08T02:01:41.747Z,70.95
2022-11-08T02:06:40.300Z,70.57
2022-11-08T02:11:37.120Z,69.38
2022-11-08T02:16:33.820Z,70.02
2022-11-08T02:21:38.464Z,69.38
2022-11-08T02:26:37.885Z,70.19
2022-11-08T02:31:34.746Z,70.81
2022-11-08T02:36:31.629Z,70.84
2022-11-08T02:41:28.433Z,71.66
2022-11-08T02:46:25.881Z,71.77
2022-11-08T02:51:22.444Z,71.17
2022-11-08T02:56:22.754Z,69.53
2022-11-08T03:01:19.451Z,69.99
2022-11-08T03:06:17.034Z,70.62
2022-11-08T03:11:16.513Z,70.39
2022-11-08T03:16:14.822Z,69.33
2022-11-08T03:21:11.460Z,69.26
2022-11-08T03:26:08.628Z,70.61
2022-11-08T03:31:07.857Z,70.86
2022-11-08T03:36:04.795Z,71.06
2022-11-08T03:41:03.592Z,72.11
2022-11-08T03:46:00.731Z,72.87
2022-11-08T03:50:58.054Z,72.52
2022-11-08T03:55:54.802Z,71.73
2022-11-08T04:00:51.945Z,71.24
2022-11-08T04:05:52.032Z,70.89
2022-11-08T04:10:51.147Z,73.48
2022-11-08T04:15:52.538Z,73.32
2022-11-08T04:21:08.213Z,72.31
2022-11-08T04:26:05.998Z,74.47
2022-11-08T04:31:05.830Z,73.30
2022-11-08T04:36:07.055Z,73.36
2022-11-08T04:41:08.211Z,72.68
2022-11-08T04:46:06.229Z,72.62
2022-11-08T04:51:04.803Z,72.00
2022-11-08T04:56:01.940Z,72.34
2022-11-08T05:00:59.481Z,72.53
2022-11-08T05:05:56.248Z,70.89
2022-11-08T05:10:59.220Z,71.36
2022-11-08T05:15:59.319Z,73.35
2022-11-08T05:21:17.047Z,73.99
2022-11-08T05:26:17.008Z,73.56
2022-11-08T05:31:16.064Z,74.00
2022-11-08T05:36:15.120Z,73.06
2022-11-08T05:41:13.253Z,73.97
2022-11-08T05:46:13.306Z,74.66
2022-11-08T05:51:18.891Z,73.43
2022-11-08T05:56:16.016Z,73.11
2022-11-08T06:01:17.575Z,73.81
2022-11-08T06:06:18.439Z,74.21
2022-11-08T06:11:17.104Z,73.30
2022-11-08T06:16:15.993Z,73.08
2022-11-08T06:21:13.716Z,73.37
2022-11-08T06:26:10.569Z,72.39
2022-11-08T06:31:10.732Z,71.05
2022-11-08T06:36:09.213Z,72.33
2022-11-08T06:41:07.137Z,71.83
2022-11-08T06:46:04.567Z,71.57
2022-11-08T06:51:01.695Z,72.24
2022-11-08T06:56:02.976Z,71.58
2022-11-08T07:01:02.488Z,71.49
2022-11-08T07:06:02.295Z,71.44
2022-11-08T07:10:59.712Z,71.73
2022-11-08T07:16:03.734Z,72.45
2022-11-08T07:21:01.013Z,72.14
2022-11-08T07:26:01.731Z,73.38
2022-11-08T07:31:04.942Z,72.42
2022-11-08T07:36:02.150Z,72.53
2022-11-08T07:40:59.534Z,71.12
2022-11-08T07:45:58.258Z,71.51
2022-11-08T07:51:08.291Z,71.66
2022-11-08T07:56:10.019Z,71.00
2022-11-08T08:01:08.999Z,69.84
2022-11-08T08:06:05.947Z,69.32
2022-11-08T08:11:04.581Z,68.71
2022-11-08T08:16:02.000Z,69.51
2022-11-08T08:21:02.203Z,69.80
2022-11-08T08:26:01.391Z,69.70
2022-11-08T08:30:58.388Z,68.89
2022-11-08T08:35:55.891Z,69.25
2022-11-08T08:40:53.504Z,69.03
2022-11-08T08:45:53.189Z,68.81
2022-11-08T08:50:49.878Z,68.98
2022-11-08T08:55:47.498Z,68.76
2022-11-08T09:06:06.491Z,68.62
2022-11-08T09:11:03.427Z,67.75
2022-11-08T09:16:07.516Z,67.79
2022-11-08T09:21:04.482Z,67.36
2022-11-08T09:26:02.085Z,67.05
2022-11-08T09:31:00.954Z,67.04
2022-11-08T09:36:16.014Z,66.55
2022-11-08T09:41:30.726Z,66.03
2022-11-08T09:46:31.715Z,65.83
2022-11-08T09:51:32.424Z,65.32
2022-11-08T09:56:30.825Z,64.52
2022-11-08T10:01:29.413Z,64.53
2022-11-08T10:06:49.921Z,64.66
2022-11-08T10:11:55.877Z,63.80
2022-11-08T10:16:57.846Z,63.24
2022-11-08T10:21:58.942Z,63.39
2022-11-08T10:27:00.993Z,63.68
2022-11-08T10:32:03.689Z,63.44
2022-11-08T10:37:03.255Z,63.14
2022-11-08T10:42:02.659Z,63.04
2022-11-08T10:47:02.632Z,63.00
2022-11-08T10:52:00.910Z,63.29
2022-11-08T10:56:57.767Z,63.10
2022-11-08T11:01:54.909Z,62.50
2022-11-08T11:07:02.165Z,61.35
2022-11-08T11:11:59.863Z,60.30
2022-11-08T11:16:57.906Z,60.82
2022-11-08T11:21:57.359Z,60.57
2022-11-08T11:27:02.394Z,60.90
2022-11-08T11:32:22.047Z,60.52
2022-11-08T11:37:28.870Z,59.84
2022-11-08T11:42:51.391Z,59.90
2022-11-08T11:47:52.157Z,59.04
2022-11-08T11:52:49.518Z,58.08
2022-11-08T11:57:53.356Z,58.08
2022-11-08T12:03:06.854Z,58.26
2022-11-08T12:08:24.905Z,58.00
2022-11-08T12:13:28.965Z,57.94
2022-11-08T12:18:43.682Z,57.68
2022-11-08T12:23:53.180Z,58.03
2022-11-08T12:29:03.232Z,57.80
2022-11-08T12:34:06.405Z,57.30
2022-11-08T12:39:10.118Z,57.19
2022-11-08T12:44:21.735Z,56.74
2022-11-08T12:49:34.331Z,57.01
2022-11-08T12:54:33.570Z,56.70
2022-11-08T12:59:33.198Z,56.56
2022-11-08T13:04:38.762Z,56.99
2022-11-08T13:09:40.269Z,57.19
2022-11-08T13:14:41.097Z,56.67
2022-11-08T13:19:53.223Z,56.83
2022-11-08T13:24:50.784Z,56.75
2022-11-08T13:29:50.297Z,57.09
2022-11-08T13:34:55.352Z,56.92
2022-11-08T13:40:03.062Z,57.87
2022-11-08T13:45:14.771Z,57.20
2022-11-08T13:50:33.195Z,56.80
2022-11-08T13:55:44.563Z,57.08
2022-11-08T14:00:45.616Z,56.92
2022-11-08T14:05:45.084Z,56.82
2022-11-08T14:10:51.097Z,57.08
2022-11-08T14:15:52.043Z,56.11
2022-11-08T14:20:49.518Z,56.83
2022-11-08T14:25:48.051Z,56.94
2022-11-08T14:30:50.886Z,57.37
2022-11-08T14:35:55.066Z,56.41
2022-11-08T14:40:53.739Z,57.35
2022-11-08T14:45:54.160Z,57.32
2022-11-08T14:50:58.231Z,57.52
2022-11-08T14:56:03.000Z,57.46
2022-11-08T15:01:04.217Z,57.36
2022-11-08T15:06:02.744Z,58.08
2022-11-08T15:11:02.016Z,57.14
2022-11-08T15:16:01.494Z,58.73
2022-11-08T15:21:00.768Z,58.42
2022-11-08T15:25:58.594Z,59.03
2022-11-08T15:30:58.354Z,58.66
2022-11-08T15:35:55.224Z,58.89
2022-11-08T15:40:52.844Z,58.71
2022-11-08T15:45:52.837Z,59.11
2022-11-08T15:50:50.736Z,59.18
2022-11-08T15:55:51.618Z,58.92
2022-11-08T16:00:48.982Z,59.15
2022-11-08T16:05:45.753Z,59.12
2022-11-08T16:10:43.934Z,58.83
2022-11-08T16:15:40.723Z,58.68
2022-11-08T16:20:38.012Z,59.19
2022-11-08T16:25:36.316Z,59.10
2022-11-08T16:30:33.622Z,58.87
2022-11-08T16:35:30.442Z,59.03
2022-11-08T16:40:29.904Z,58.96
2022-11-08T16:45:58.371Z,58.34
2022-11-08T16:56:23.727Z,58.18
2022-11-08T17:01:46.865Z,58.84
2022-11-08T17:06:44.856Z,59.18
2022-11-08T17:11:44.059Z,59.44
2022-11-08T17:16:41.102Z,59.65
2022-11-08T17:21:44.861Z,59.50
2022-11-08T17:26:42.724Z,59.61
2022-11-08T17:31:39.454Z,59.31
2022-11-08T17:36:38.919Z,59.24
2022-11-08T17:41:36.770Z,58.98
2022-11-08T17:46:34.089Z,59.26
2022-11-08T17:51:33.033Z,59.18
2022-11-08T17:56:29.817Z,58.95
2022-11-08T18:01:26.509Z,58.81
2022-11-08T18:06:23.889Z,58.80
2022-11-08T18:11:20.536Z,58.95
2022-11-08T18:16:23.293Z,59.71
2022-11-08T18:21:20.329Z,59.66
2022-11-08T18:26:18.217Z,59.30
2022-11-08T18:31:16.259Z,59.67
2022-11-08T18:36:16.875Z,59.89
2022-11-08T18:41:14.580Z,59.79
2022-11-08T18:46:16.920Z,60.10
2022-11-08T18:51:15.003Z,59.02
2022-11-08T18:56:12.454Z,59.28
2022-11-08T19:01:09.153Z,59.50
2022-11-08T19:06:07.133Z,59.59
2022-11-08T19:11:05.564Z,59.72
2022-11-08T19:16:03.057Z,59.93
2022-11-08T19:21:01.923Z,59.92
2022-11-08T19:26:02.272Z,59.61
2022-11-08T19:30:58.948Z,59.35
2022-11-08T19:35:55.637Z,59.37
2022-11-08T19:40:52.247Z,59.23
2022-11-08T19:45:54.383Z,59.21
2022-11-08T19:50:51.080Z,60.41
2022-11-08T19:55:48.102Z,61.65
2022-11-08T20:00:47.782Z,63.36
2022-11-08T20:05:51.837Z,63.25
2022-11-08T20:10:49.785Z,64.47
2022-11-08T20:15:52.307Z,64.31
2022-11-08T20:20:52.516Z,64.69
2022-11-08T20:25:49.166Z,66.76
2022-11-08T20:30:45.870Z,68.10
2022-11-08T20:35:42.620Z,68.80
2022-11-08T20:40:39.926Z,69.11
2022-11-08T20:45:38.621Z,69.13
2022-11-08T20:50:35.237Z,69.04
2022-11-08T20:55:34.857Z,67.98
2022-11-08T21:00:56.737Z,67.70
2022-11-08T21:05:52.959Z,66.84
2022-11-08T21:10:49.981Z,66.32
2022-11-08T21:15:47.783Z,66.24
2022-11-08T21:20:46.545Z,65.33
2022-11-08T21:25:43.166Z,64.57
2022-11-08T21:30:43.320Z,64.23
2022-11-08T21:35:42.876Z,64.55
2022-11-08T21:40:42.126Z,65.57
2022-11-08T21:45:38.987Z,65.35
2022-11-08T21:50:38.407Z,64.80
2022-11-08T21:55:35.734Z,64.34
2022-11-08T22:00:33.799Z,66.46
2022-11-08T22:05:30.443Z,68.28
2022-11-08T22:10:27.072Z,69.04
2022-11-08T22:15:26.105Z,68.62
2022-11-08T22:20:22.818Z,67.80
2022-11-08T22:25:19.441Z,67.15
2022-11-08T22:30:17.423Z,66.92
2022-11-08T22:35:14.983Z,66.18
2022-11-08T22:40:12.329Z,64.88
2022-11-08T22:45:09.439Z,65.34
2022-11-08T22:50:06.417Z,65.27
2022-11-08T22:55:04.075Z,64.70
2022-11-08T23:00:04.135Z,65.20
2022-11-08T23:05:03.514Z,65.61
2022-11-08T23:10:00.200Z,64.50
2022-11-08T23:15:15.577Z,63.83
2022-11-08T23:20:30.377Z,63.89
2022-11-08T23:25:26.999Z,64.04
2022-11-08T23:30:42.599Z,64.46
2022-11-08T23:35:59.569Z,64.64
2022-11-08T23:41:17.678Z,65.36
2022-11-08T23:46:15.927Z,65.50
2022-11-08T23:51:12.547Z,65.55
2022-11-08T23:56:11.148Z,65.11
